.
WxDataArchive / Data Records for 2009-11-16
2009-11-15 November 2009 2009-11-17

Data Records for Monday, 16 November 2009

Time	Temp	Chill	HIndex	Humid	Dewpt	 Wind 	HiWind	WindDir	Rain 	Barom 
-----	----	-----	------	-----	-----	------	------	-------	-----	----- 
00:00	47.1	47.1	47.1	63	35.2	0	3	45	0.00	30.176 
00:05	47.1	47.1	47.1	64	35.6	1	5	112	0.00	30.176 
00:10	47.1	47.1	47.1	64	35.6	0	3	45	0.00	30.176 
00:15	47.0	47.0	47.0	63	35.1	1	4	112	0.00	30.165 
00:20	47.0	47.0	47.0	64	35.5	1	3	45	0.00	30.165 
00:25	47.0	47.0	47.0	64	35.5	1	5	112	0.00	30.165 
00:30	46.8	46.8	46.8	64	35.3	1	5	45	0.00	30.171 
00:35	46.8	46.8	46.8	64	35.3	1	4	90	0.00	30.171 
00:40	46.8	46.8	46.8	63	34.9	2	5	112	0.00	30.171 
00:45	46.8	46.8	46.8	64	35.3	2	6	112	0.00	30.168 
00:50	46.8	46.8	46.8	65	35.7	1	3	112	0.00	30.168 
00:55	46.7	46.7	46.7	64	35.2	1	5	45	0.00	30.168 
01:00	46.7	46.7	46.7	65	35.6	1	3	68	0.00	30.179 
01:05	46.5	46.5	46.5	64	35.0	1	5	0	0.00	30.179 
01:10	46.5	46.5	46.5	64	35.0	1	4	68	0.00	30.179 
01:15	46.5	46.5	46.5	65	35.4	0	2	68	0.00	30.183 
01:20	46.4	46.4	46.4	66	35.7	1	4	68	0.00	30.183 
01:25	46.2	46.2	46.2	67	35.9	1	3	22	0.00	30.183 
01:30	46.1	46.1	46.1	69	36.5	0	3	22	0.00	30.194 
01:35	46.0	46.0	46.0	70	36.8	1	3	45	0.00	30.194 
01:40	45.7	45.7	45.7	73	37.5	0	3	45	0.01	30.194 
01:45	45.4	45.4	45.4	73	37.3	1	4	22	0.00	30.192 
01:50	45.1	45.1	45.1	74	37.3	1	3	22	0.00	30.192 
01:55	44.9	44.9	44.9	75	37.5	0	3	45	0.00	30.192 
02:00	44.8	44.8	44.8	76	37.7	0	3	68	0.00	30.189 
02:05	44.6	44.6	44.6	77	37.8	0	3	90	0.00	30.189 
02:10	44.5	44.5	44.5	77	37.7	0	3	90	0.00	30.189 
02:15	44.5	44.5	44.5	77	37.7	1	4	90	0.00	30.189 
02:20	44.3	44.3	44.3	77	37.6	0	3	68	0.00	30.189 
02:25	44.3	44.3	44.3	77	37.6	0	3	112	0.00	30.189 
02:30	44.2	44.2	44.2	77	37.5	1	4	45	0.00	30.184 
02:35	44.2	44.2	44.2	77	37.5	1	5	112	0.00	30.184 
02:40	44.2	44.2	44.2	77	37.5	1	5	22	0.00	30.184 
02:45	44.1	44.1	44.1	78	37.7	1	5	135	0.00	30.193 
02:50	44.1	44.1	44.1	78	37.7	1	3	135	0.00	30.193 
02:55	43.9	43.9	43.9	79	37.8	1	3	90	0.00	30.193 
03:00	43.8	43.8	43.8	80	38.0	1	4	45	0.01	30.195 
03:05	43.6	43.6	43.6	80	37.8	1	4	135	0.00	30.195 
03:10	43.5	43.5	43.5	81	38.1	1	4	45	0.00	30.195 
03:15	43.3	43.3	43.3	81	37.9	1	4	45	0.00	30.191 
03:20	43.2	43.2	43.2	82	38.1	1	5	90	0.00	30.191 
03:25	43.1	43.1	43.1	83	38.3	1	5	68	0.00	30.191 
03:30	43.1	43.1	43.1	83	38.3	1	5	45	0.00	30.192 
03:35	42.9	42.9	42.9	84	38.4	1	4	135	0.00	30.192 
03:40	42.9	42.9	42.9	84	38.4	1	5	112	0.00	30.192 
03:45	42.8	42.8	42.8	84	38.3	1	4	112	0.00	30.188 
03:50	42.6	42.6	42.6	84	38.1	1	4	315	0.00	30.188 
03:55	42.5	42.5	42.5	85	38.3	0	3	158	0.01	30.188 
04:00	42.5	42.5	42.5	86	38.6	1	4	112	0.00	30.195 
04:05	42.3	42.3	42.3	86	38.4	1	5	112	0.00	30.195 
04:10	42.2	42.2	42.2	86	38.3	1	4	112	0.00	30.195 
04:15	42.2	42.2	42.2	87	38.6	1	6	112	0.01	30.200 
04:20	42.1	42.1	42.1	87	38.5	1	5	22	0.00	30.200 
04:25	41.9	41.9	41.9	87	38.3	1	3	68	0.00	30.200 
04:30	41.9	41.9	41.9	87	38.3	1	5	135	0.00	30.197 
04:35	41.9	41.9	41.9	87	38.3	1	4	68	0.00	30.197 
04:40	41.8	41.8	41.8	87	38.2	1	5	135	0.00	30.197 
04:45	41.8	41.8	41.8	87	38.2	1	6	112	0.00	30.189 
04:50	41.8	41.8	41.8	87	38.2	1	4	45	0.00	30.189 
04:55	41.6	41.6	41.6	87	38.0	2	6	90	0.00	30.189 
05:00	41.6	39.2	41.6	86	37.7	4	10	112	0.00	30.184 
05:05	41.8	38.6	41.8	86	37.9	5	11	112	0.00	30.184 
05:10	41.8	39.4	41.8	86	37.9	4	12	90	0.00	30.184 
05:15	41.8	39.4	41.8	86	37.9	4	10	90	0.00	30.177 
05:20	41.8	39.4	41.8	86	37.9	4	10	90	0.00	30.177 
05:25	41.8	39.4	41.8	86	37.9	4	10	90	0.00	30.177 
05:30	41.8	41.8	41.8	86	37.9	3	7	90	0.00	30.172 
05:35	41.8	39.4	41.8	86	37.9	4	11	90	0.00	30.172 
05:40	41.9	38.7	41.9	86	38.0	5	12	90	0.00	30.172 
05:45	41.9	39.5	41.9	86	38.0	4	10	112	0.00	30.171 
05:50	41.9	39.5	41.9	87	38.3	4	9	90	0.00	30.171 
05:55	41.9	41.9	41.9	87	38.3	2	7	90	0.00	30.171 
06:00	41.9	41.9	41.9	87	38.3	2	7	112	0.00	30.171 
06:05	41.9	41.9	41.9	88	38.6	1	4	112	0.00	30.171 
06:10	41.9	39.5	41.9	88	38.6	4	9	112	0.00	30.171 
06:15	41.8	41.8	41.8	89	38.8	3	5	90	0.00	30.162 
06:20	41.8	41.8	41.8	90	39.1	2	5	112	0.00	30.162 
06:25	41.8	41.8	41.8	90	39.1	3	11	90	0.01	30.162 
06:30	41.8	41.8	41.8	90	39.1	2	7	135	0.00	30.174 
06:35	41.8	41.8	41.8	91	39.4	2	9	112	0.00	30.174 
06:40	41.9	41.9	41.9	91	39.5	3	11	112	0.00	30.174 
06:45	42.1	42.1	42.1	91	39.7	3	11	90	0.00	30.183 
06:50	42.2	42.2	42.2	91	39.8	1	5	112	0.00	30.183 
06:55	42.3	42.3	42.3	91	39.9	1	5	22	0.00	30.183 
07:00	42.3	42.3	42.3	91	39.9	2	6	112	0.00	30.189 
07:05	42.5	42.5	42.5	91	40.1	2	7	90	0.00	30.189 
07:10	42.5	42.5	42.5	91	40.1	1	7	45	0.00	30.189 
07:15	42.5	42.5	42.5	91	40.1	2	6	112	0.00	30.193 
07:20	42.6	42.6	42.6	91	40.2	1	3	135	0.00	30.193 
07:25	42.5	42.5	42.5	91	40.1	1	5	45	0.01	30.193 
07:30	42.6	42.6	42.6	92	40.4	1	4	90	0.00	30.208 
07:35	42.6	42.6	42.6	92	40.4	1	4	68	0.00	30.208 
07:40	42.5	42.5	42.5	92	40.3	1	3	112	0.00	30.208 
07:45	42.5	42.5	42.5	92	40.3	1	4	135	0.00	30.208 
07:50	42.3	42.3	42.3	92	40.1	1	4	68	0.00	30.208 
07:55	42.3	42.3	42.3	92	40.1	1	5	90	0.01	30.208 
08:00	42.1	42.1	42.1	92	39.9	2	9	90	0.00	30.208 
08:05	41.9	41.9	41.9	92	39.7	2	5	90	0.00	30.208 
08:10	41.8	41.8	41.8	92	39.6	2	7	112	0.01	30.208 
08:15	41.8	41.8	41.8	92	39.6	2	8	112	0.00	30.209 
08:20	41.8	41.8	41.8	92	39.6	2	5	112	0.00	30.209 
08:25	41.6	41.6	41.6	92	39.5	1	6	112	0.01	30.209 
08:30	41.6	41.6	41.6	92	39.5	1	3	45	0.00	30.215 
08:35	41.5	41.5	41.5	92	39.4	2	6	112	0.00	30.215 
08:40	41.5	41.5	41.5	92	39.4	3	11	90	0.01	30.215 
08:45	41.5	41.5	41.5	92	39.4	2	6	90	0.00	30.218 
08:50	41.3	41.3	41.3	92	39.2	2	9	0	0.00	30.218 
08:55	41.2	41.2	41.2	92	39.1	1	4	112	0.00	30.218 
09:00	41.1	41.1	41.1	92	39.0	3	10	112	0.00	30.216 
09:05	41.1	41.1	41.1	92	39.0	2	5	22	0.00	30.216 
09:10	40.9	40.9	40.9	92	38.8	2	6	22	0.01	30.216 
09:15	40.9	40.9	40.9	92	38.8	2	7	112	0.00	30.218 
09:20	40.9	40.9	40.9	92	38.8	2	9	112	0.00	30.218 
09:25	40.8	40.8	40.8	92	38.7	3	8	112	0.00	30.218 
09:30	40.8	38.2	40.8	92	38.7	4	11	112	0.00	30.212 
09:35	40.8	40.8	40.8	92	38.7	3	8	90	0.00	30.212 
09:40	40.8	40.8	40.8	92	38.7	2	12	112	0.00	30.212 
09:45	40.8	40.8	40.8	92	38.7	2	6	112	0.01	30.222 
09:50	40.8	40.8	40.8	92	38.7	2	5	135	0.00	30.222 
09:55	40.9	40.9	40.9	92	38.8	2	6	112	0.00	30.222 
10:00	40.8	40.8	40.8	92	38.7	3	12	90	0.00	30.227 
10:05	40.8	40.8	40.8	92	38.7	3	13	112	0.01	30.227 
10:10	40.6	40.6	40.6	92	38.5	3	11	112	0.00	30.227 
10:15	40.6	40.6	40.6	92	38.5	2	9	22	0.01	30.234 
10:20	40.6	40.6	40.6	92	38.5	3	10	112	0.00	30.234 
10:25	40.6	40.6	40.6	92	38.5	3	9	112	0.00	30.234 
10:30	40.6	40.6	40.6	92	38.5	3	8	135	0.00	30.236 
10:35	40.5	40.5	40.5	92	38.4	3	8	112	0.00	30.236 
10:40	40.5	40.5	40.5	92	38.4	3	7	112	0.01	30.236 
10:45	40.6	40.6	40.6	92	38.5	3	9	112	0.00	30.236 
10:50	40.6	40.6	40.6	92	38.5	3	9	90	0.00	30.236 
10:55	40.6	40.6	40.6	92	38.5	2	5	90	0.01	30.236 
11:00	40.6	40.6	40.6	92	38.5	2	6	90	0.00	30.233 
11:05	40.6	40.6	40.6	92	38.5	1	4	90	0.00	30.233 
11:10	40.8	40.8	40.8	92	38.7	3	8	90	0.00	30.233 
11:15	40.8	40.8	40.8	92	38.7	3	8	90	0.00	30.222 
11:20	40.8	40.8	40.8	92	38.7	3	11	90	0.00	30.222 
11:25	40.8	40.8	40.8	92	38.7	3	9	90	0.01	30.222 
11:30	40.9	40.9	40.9	92	38.8	2	9	112	0.00	30.219 
11:35	41.1	41.1	41.1	92	39.0	3	11	112	0.00	30.219 
11:40	41.1	41.1	41.1	92	39.0	3	11	90	0.00	30.219 
11:45	41.1	41.1	41.1	92	39.0	2	7	112	0.00	30.214 
11:50	41.2	41.2	41.2	92	39.1	2	10	112	0.00	30.214 
11:55	41.3	41.3	41.3	92	39.2	3	8	90	0.00	30.214 
12:00	41.3	41.3	41.3	92	39.2	3	7	112	0.01	30.207 
12:05	41.5	41.5	41.5	92	39.4	3	6	112	0.00	30.207 
12:10	41.5	41.5	41.5	92	39.4	2	6	112	0.00	30.207 
12:15	41.5	41.5	41.5	92	39.4	2	6	90	0.00	30.200 
12:20	41.5	41.5	41.5	92	39.4	2	11	90	0.00	30.200 
12:25	41.5	41.5	41.5	92	39.4	2	6	45	0.00	30.200 
12:30	41.3	41.3	41.3	92	39.2	2	7	112	0.00	30.203 
12:35	41.5	41.5	41.5	92	39.4	1	5	112	0.00	30.203 
12:40	41.5	41.5	41.5	92	39.4	2	8	112	0.00	30.203 
12:45	41.5	41.5	41.5	92	39.4	2	5	112	0.00	30.191 
12:50	41.5	41.5	41.5	92	39.4	2	5	112	0.00	30.191 
12:55	41.5	41.5	41.5	92	39.4	2	11	112	0.00	30.191 
13:00	41.6	41.6	41.6	92	39.5	2	6	112	0.00	30.190 
13:05	41.6	41.6	41.6	92	39.5	2	9	45	0.00	30.190 
13:10	41.6	41.6	41.6	92	39.5	1	5	112	0.00	30.190 
13:15	41.8	41.8	41.8	92	39.6	2	13	90	0.00	30.191 
13:20	41.8	41.8	41.8	92	39.6	2	6	112	0.00	30.191 
13:25	41.8	41.8	41.8	92	39.6	3	8	112	0.00	30.191 
13:30	41.9	41.9	41.9	92	39.7	3	12	112	0.00	30.189 
13:35	41.9	41.9	41.9	91	39.5	2	5	90	0.00	30.189 
13:40	41.9	41.9	41.9	91	39.5	2	5	112	0.00	30.189 
13:45	41.8	41.8	41.8	91	39.4	2	9	45	0.00	30.187 
13:50	41.8	41.8	41.8	91	39.4	2	7	112	0.00	30.187 
13:55	41.8	41.8	41.8	91	39.4	2	6	112	0.01	30.187 
14:00	41.9	41.9	41.9	91	39.5	2	5	112	0.00	30.183 
14:05	41.9	41.9	41.9	91	39.5	2	7	22	0.00	30.183 
14:10	41.9	41.9	41.9	91	39.5	3	6	112	0.00	30.183 
14:15	41.9	41.9	41.9	91	39.5	3	6	112	0.00	30.173 
14:20	42.1	42.1	42.1	90	39.4	2	7	135	0.00	30.173 
14:25	42.2	42.2	42.2	90	39.5	2	6	112	0.00	30.173 
14:30	42.2	42.2	42.2	90	39.5	2	7	112	0.00	30.169 
14:35	42.3	42.3	42.3	90	39.6	2	7	112	0.00	30.169 
14:40	42.3	42.3	42.3	89	39.3	3	7	112	0.00	30.169 
14:45	42.3	42.3	42.3	89	39.3	3	12	112	0.00	30.176 
14:50	42.3	42.3	42.3	89	39.3	3	8	112	0.00	30.176 
14:55	42.3	42.3	42.3	89	39.3	3	7	90	0.00	30.176 
15:00	42.3	42.3	42.3	89	39.3	2	5	90	0.00	30.162 
15:05	42.3	42.3	42.3	89	39.3	1	6	112	0.00	30.162 
15:10	42.3	42.3	42.3	89	39.3	2	6	68	0.00	30.162 
15:15	42.3	42.3	42.3	89	39.3	3	13	112	0.00	30.161 
15:20	42.5	42.5	42.5	89	39.5	3	10	22	0.00	30.161 
15:25	42.5	42.5	42.5	89	39.5	1	5	68	0.00	30.161 
15:30	42.5	42.5	42.5	89	39.5	1	5	90	0.00	30.162 
15:35	42.5	42.5	42.5	89	39.5	2	5	22	0.00	30.162 
15:40	42.5	42.5	42.5	89	39.5	2	7	112	0.00	30.162 
15:45	42.6	42.6	42.6	89	39.6	2	9	112	0.00	30.160 
15:50	42.6	42.6	42.6	89	39.6	2	6	112	0.00	30.160 
15:55	42.6	40.3	42.6	88	39.3	4	9	112	0.00	30.160 
16:00	42.6	42.6	42.6	87	39.0	3	10	112	0.00	30.160 
16:05	42.5	42.5	42.5	87	38.9	3	12	90	0.00	30.160 
16:10	42.5	42.5	42.5	87	38.9	3	9	112	0.00	30.160 
16:15	42.5	42.5	42.5	86	38.6	3	8	112	0.00	30.165 
16:20	42.5	42.5	42.5	86	38.6	3	14	112	0.00	30.165 
16:25	42.3	42.3	42.3	86	38.4	3	15	112	0.00	30.165 
16:30	42.3	42.3	42.3	86	38.4	2	6	90	0.00	30.170 
16:35	42.2	42.2	42.2	86	38.3	3	7	112	0.00	30.170 
16:40	42.2	42.2	42.2	86	38.3	3	10	135	0.00	30.170 
16:45	42.2	42.2	42.2	86	38.3	2	6	112	0.00	30.162 
16:50	42.1	42.1	42.1	86	38.2	2	10	90	0.00	30.162 
16:55	42.1	42.1	42.1	86	38.2	2	7	90	0.00	30.162 
17:00	42.1	42.1	42.1	86	38.2	1	5	112	0.00	30.165 
17:05	42.1	42.1	42.1	87	38.5	1	9	112	0.00	30.165 
17:10	42.1	42.1	42.1	86	38.2	3	10	90	0.00	30.165 
17:15	42.1	42.1	42.1	86	38.2	2	9	112	0.00	30.175 
17:20	42.1	42.1	42.1	86	38.2	3	11	90	0.00	30.175 
17:25	42.1	42.1	42.1	86	38.2	1	7	112	0.00	30.175 
17:30	42.1	42.1	42.1	87	38.5	1	6	112	0.00	30.173 
17:35	41.9	41.9	41.9	86	38.0	3	6	90	0.00	30.173 
17:40	41.9	39.5	41.9	86	38.0	4	10	90	0.00	30.173 
17:45	41.9	41.9	41.9	86	38.0	3	15	112	0.00	30.176 
17:50	41.9	39.5	41.9	86	38.0	4	9	90	0.00	30.176 
17:55	41.9	41.9	41.9	86	38.0	3	6	90	0.00	30.176 
18:00	41.9	41.9	41.9	86	38.0	2	6	112	0.00	30.167 
18:05	41.9	41.9	41.9	86	38.0	1	6	90	0.00	30.167 
18:10	41.9	41.9	41.9	86	38.0	2	5	45	0.00	30.167 
18:15	41.9	41.9	41.9	86	38.0	3	7	90	0.00	30.174 
18:20	41.9	41.9	41.9	86	38.0	2	6	68	0.00	30.174 
18:25	41.9	41.9	41.9	87	38.3	1	3	45	0.00	30.174 
18:30	41.9	41.9	41.9	86	38.0	2	10	112	0.00	30.176 
18:35	41.9	41.9	41.9	86	38.0	2	11	90	0.00	30.176 
18:40	41.9	41.9	41.9	86	38.0	2	7	90	0.00	30.176 
18:45	41.9	41.9	41.9	85	37.7	3	9	112	0.00	30.162 
18:50	41.9	41.9	41.9	84	37.4	3	7	112	0.00	30.162 
18:55	41.9	39.5	41.9	84	37.4	4	9	112	0.00	30.162 
19:00	41.9	41.9	41.9	83	37.1	3	11	68	0.00	30.157 
19:05	41.9	41.9	41.9	82	36.8	2	7	90	0.00	30.157 
19:10	41.9	41.9	41.9	81	36.5	3	10	90	0.00	30.157 
19:15	41.9	41.9	41.9	81	36.5	2	9	90	0.00	30.160 
19:20	41.9	39.5	41.9	81	36.5	4	9	90	0.00	30.160 
19:25	41.9	41.9	41.9	81	36.5	3	7	90	0.00	30.160 
19:30	41.9	39.5	41.9	81	36.5	4	10	90	0.00	30.161 
19:35	41.9	39.5	41.9	80	36.2	4	10	112	0.00	30.161 
19:40	41.9	39.5	41.9	79	35.9	4	13	112	0.00	30.161 
19:45	41.9	39.5	41.9	79	35.9	4	11	90	0.00	30.153 
19:50	41.9	41.9	41.9	80	36.2	3	10	90	0.00	30.153 
19:55	41.9	41.9	41.9	80	36.2	3	11	112	0.00	30.153 
20:00	41.9	39.5	41.9	79	35.9	4	10	90	0.00	30.162 
20:05	41.9	41.9	41.9	79	35.9	2	7	90	0.00	30.162 
20:10	41.9	41.9	41.9	79	35.9	3	10	112	0.00	30.162 
20:15	41.9	41.9	41.9	79	35.9	3	9	90	0.00	30.169 
20:20	41.9	41.9	41.9	78	35.5	3	10	112	0.00	30.169 
20:25	41.9	41.9	41.9	79	35.9	2	7	112	0.00	30.169 
20:30	41.8	41.8	41.8	78	35.5	2	7	112	0.00	30.149 
20:35	41.8	41.8	41.8	78	35.5	2	9	112	0.00	30.149 
20:40	41.8	41.8	41.8	77	35.1	2	7	112	0.00	30.149 
20:45	41.9	41.9	41.9	77	35.2	2	9	45	0.00	30.168 
20:50	41.9	41.9	41.9	77	35.2	1	3	112	0.00	30.168 
20:55	41.9	41.9	41.9	76	34.9	2	9	45	0.00	30.168 
21:00	42.1	42.1	42.1	76	35.1	1	4	90	0.00	30.173 
21:05	42.1	42.1	42.1	76	35.1	2	6	22	0.00	30.173 
21:10	42.1	42.1	42.1	76	35.1	2	7	45	0.00	30.173 
21:15	42.1	42.1	42.1	76	35.1	2	7	112	0.00	30.170 
21:20	42.2	42.2	42.2	76	35.2	2	10	22	0.00	30.170 
21:25	42.2	42.2	42.2	76	35.2	2	5	112	0.00	30.170 
21:30	42.2	42.2	42.2	76	35.2	2	8	135	0.00	30.169 
21:35	42.2	42.2	42.2	75	34.9	2	6	135	0.00	30.169 
21:40	42.2	42.2	42.2	75	34.9	2	7	90	0.00	30.169 
21:45	42.3	42.3	42.3	75	35.0	3	9	112	0.00	30.164 
21:50	42.3	42.3	42.3	75	35.0	3	7	112	0.00	30.164 
21:55	42.3	42.3	42.3	74	34.6	2	7	22	0.00	30.164 
22:00	42.3	42.3	42.3	74	34.6	2	7	135	0.00	30.161 
22:05	42.3	42.3	42.3	74	34.6	2	9	68	0.00	30.161 
22:10	42.3	42.3	42.3	73	34.3	3	10	112	0.00	30.161 
22:15	42.3	42.3	42.3	73	34.3	2	7	135	0.00	30.159 
22:20	42.3	42.3	42.3	72	33.9	3	7	112	0.00	30.159 
22:25	42.5	42.5	42.5	72	34.1	3	10	112	0.00	30.159 
22:30	42.5	42.5	42.5	73	34.5	2	6	90	0.00	30.161 
22:35	42.5	42.5	42.5	72	34.1	3	8	112	0.00	30.161 
22:40	42.5	42.5	42.5	73	34.5	3	11	112	0.00	30.161 
22:45	42.5	40.2	42.5	73	34.5	4	13	90	0.00	30.160 
22:50	42.5	40.2	42.5	74	34.8	4	11	112	0.00	30.160 
22:55	42.5	39.4	42.5	75	35.1	5	13	90	0.00	30.160 
23:00	42.3	40.0	42.3	76	35.3	4	11	112	0.00	30.164 
23:05	42.3	42.3	42.3	76	35.3	3	9	90	0.00	30.164 
23:10	42.3	42.3	42.3	77	35.6	2	7	112	0.00	30.164 
23:15	42.3	42.3	42.3	77	35.6	2	6	112	0.00	30.156 
23:20	42.3	40.0	42.3	77	35.6	4	16	112	0.00	30.156 
23:25	42.3	42.3	42.3	78	35.9	3	7	112	0.00	30.156 
23:30	42.3	42.3	42.3	78	35.9	3	13	112	0.00	30.158 
23:35	42.3	42.3	42.3	78	35.9	2	9	68	0.00	30.158 
23:40	42.3	42.3	42.3	78	35.9	3	12	90	0.00	30.158 
23:45	42.3	42.3	42.3	78	35.9	2	6	112	0.00	30.165 
23:50	42.3	42.3	42.3	78	35.9	2	12	90	0.00	30.165 
23:55	42.3	42.3	42.3	78	35.9	2	9	112	0.00	30.165 

CoCoRaHS
IN-AL-39
A2 Web Hosting
Creative Commons License
GoDaddy
search engine by freefind advanced

loaded 2018-11-20 07:19:24 • last modified 2010-11-18 10:43:29
Privacy PolicyDisclaimer
• wx.awcolley.com is powered by PmWiki v.2002016 •
• all content (unless otherwise noted) © 2018 A W Colley